sensor_id;sensor_type;location;lat;lon;timestamp;P1;durP1;ratioP1;P2;durP2;ratioP2
37097;SDS011;63608;49.572;12.348;2022-12-11T00:00:31;18.63;;;13.03;;
37097;SDS011;63608;49.572;12.348;2022-12-11T00:02:35;18.60;;;12.67;;
37097;SDS011;63608;49.572;12.348;2022-12-11T00:04:38;18.63;;;12.80;;
37097;SDS011;63608;49.572;12.348;2022-12-11T00:06:40;16.60;;;12.37;;
37097;SDS011;63608;49.572;12.348;2022-12-11T00:08:42;19.10;;;13.00;;
37097;SDS011;63608;49.572;12.348;2022-12-11T00:10:46;18.00;;;12.50;;
37097;SDS011;63608;49.572;12.348;2022-12-11T00:12:49;17.60;;;12.77;;
37097;SDS011;63608;49.572;12.348;2022-12-11T00:14:52;17.87;;;13.33;;
37097;SDS011;63608;49.572;12.348;2022-12-11T00:16:54;18.30;;;12.83;;
37097;SDS011;63608;49.572;12.348;2022-12-11T00:18:58;18.60;;;12.70;;
37097;SDS011;63608;49.572;12.348;2022-12-11T00:21:05;19.00;;;13.10;;
37097;SDS011;63608;49.572;12.348;2022-12-11T00:23:09;16.40;;;12.33;;
37097;SDS011;63608;49.572;12.348;2022-12-11T00:25:12;18.37;;;12.60;;
37097;SDS011;63608;49.572;12.348;2022-12-11T00:27:16;19.23;;;12.93;;
37097;SDS011;63608;49.572;12.348;2022-12-11T00:29:18;18.03;;;12.97;;
37097;SDS011;63608;49.572;12.348;2022-12-11T00:31:21;16.90;;;11.50;;
37097;SDS011;63608;49.572;12.348;2022-12-11T00:33:26;19.00;;;12.40;;
37097;SDS011;63608;49.572;12.348;2022-12-11T00:35:31;18.50;;;12.93;;
37097;SDS011;63608;49.572;12.348;2022-12-11T00:37:35;18.20;;;12.03;;
37097;SDS011;63608;49.572;12.348;2022-12-11T00:39:38;17.40;;;12.80;;
37097;SDS011;63608;49.572;12.348;2022-12-11T00:41:42;16.33;;;11.77;;
37097;SDS011;63608;49.572;12.348;2022-12-11T00:43:46;18.23;;;12.90;;
37097;SDS011;63608;49.572;12.348;2022-12-11T00:45:49;15.70;;;11.87;;
37097;SDS011;63608;49.572;12.348;2022-12-11T00:48:06;17.60;;;11.70;;
37097;SDS011;63608;49.572;12.348;2022-12-11T00:50:09;16.30;;;12.57;;
37097;SDS011;63608;49.572;12.348;2022-12-11T00:52:14;17.10;;;12.27;;
37097;SDS011;63608;49.572;12.348;2022-12-11T00:54:17;15.90;;;12.00;;
37097;SDS011;63608;49.572;12.348;2022-12-11T00:56:21;18.43;;;13.30;;
37097;SDS011;63608;49.572;12.348;2022-12-11T00:58:24;17.07;;;12.80;;
37097;SDS011;63608;49.572;12.348;2022-12-11T01:00:26;16.20;;;11.70;;
37097;SDS011;63608;49.572;12.348;2022-12-11T01:02:29;14.50;;;11.37;;
37097;SDS011;63608;49.572;12.348;2022-12-11T01:04:33;16.93;;;11.97;;
37097;SDS011;63608;49.572;12.348;2022-12-11T01:06:38;16.53;;;11.80;;
37097;SDS011;63608;49.572;12.348;2022-12-11T01:08:42;15.90;;;12.13;;
37097;SDS011;63608;49.572;12.348;2022-12-11T01:10:46;16.20;;;12.37;;
37097;SDS011;63608;49.572;12.348;2022-12-11T01:12:47;15.70;;;11.93;;
37097;SDS011;63608;49.572;12.348;2022-12-11T01:14:50;17.80;;;12.00;;
37097;SDS011;63608;49.572;12.348;2022-12-11T01:16:52;16.30;;;12.00;;
37097;SDS011;63608;49.572;12.348;2022-12-11T01:18:55;18.47;;;12.90;;
37097;SDS011;63608;49.572;12.348;2022-12-11T01:20:58;16.23;;;12.17;;
37097;SDS011;63608;49.572;12.348;2022-12-11T01:23:01;21.47;;;14.77;;
37097;SDS011;63608;49.572;12.348;2022-12-11T01:25:07;20.50;;;15.03;;
37097;SDS011;63608;49.572;12.348;2022-12-11T01:27:13;18.40;;;12.37;;
37097;SDS011;63608;49.572;12.348;2022-12-11T01:29:16;16.93;;;11.70;;
37097;SDS011;63608;49.572;12.348;2022-12-11T01:31:21;17.57;;;12.57;;
37097;SDS011;63608;49.572;12.348;2022-12-11T01:33:25;18.40;;;12.60;;
37097;SDS011;63608;49.572;12.348;2022-12-11T01:35:28;18.00;;;13.00;;
37097;SDS011;63608;49.572;12.348;2022-12-11T01:37:30;18.50;;;12.67;;
37097;SDS011;63608;49.572;12.348;2022-12-11T01:39:33;19.17;;;12.73;;
37097;SDS011;63608;49.572;12.348;2022-12-11T01:41:36;18.57;;;13.53;;
37097;SDS011;63608;49.572;12.348;2022-12-11T01:46:00;17.43;;;12.17;;
37097;SDS011;63608;49.572;12.348;2022-12-11T01:48:07;18.00;;;13.00;;
37097;SDS011;63608;49.572;12.348;2022-12-11T01:50:18;17.53;;;12.70;;
37097;SDS011;63608;49.572;12.348;2022-12-11T01:52:20;16.97;;;12.43;;
37097;SDS011;63608;49.572;12.348;2022-12-11T01:54:24;19.80;;;12.37;;
37097;SDS011;63608;49.572;12.348;2022-12-11T01:56:28;19.60;;;12.57;;
37097;SDS011;63608;49.572;12.348;2022-12-11T01:58:36;18.13;;;12.50;;
37097;SDS011;63608;49.572;12.348;2022-12-11T02:00:41;18.70;;;12.93;;
37097;SDS011;63608;49.572;12.348;2022-12-11T02:02:46;16.70;;;11.90;;
37097;SDS011;63608;49.572;12.348;2022-12-11T02:07:09;15.00;;;11.37;;
37097;SDS011;63608;49.572;12.348;2022-12-11T02:09:12;16.40;;;11.77;;
37097;SDS011;63608;49.572;12.348;2022-12-11T02:11:17;13.60;;;10.30;;
37097;SDS011;63608;49.572;12.348;2022-12-11T02:13:23;13.90;;;10.50;;
37097;SDS011;63608;49.572;12.348;2022-12-11T02:15:34;13.60;;;10.27;;
37097;SDS011;63608;49.572;12.348;2022-12-11T02:17:40;16.33;;;11.67;;
37097;SDS011;63608;49.572;12.348;2022-12-11T02:19:54;14.40;;;10.90;;
37097;SDS011;63608;49.572;12.348;2022-12-11T02:22:04;14.53;;;10.87;;
37097;SDS011;63608;49.572;12.348;2022-12-11T02:24:22;15.00;;;11.03;;
37097;SDS011;63608;49.572;12.348;2022-12-11T02:28:59;15.20;;;11.23;;
37097;SDS011;63608;49.572;12.348;2022-12-11T02:31:06;12.90;;;10.27;;
37097;SDS011;63608;49.572;12.348;2022-12-11T02:33:12;16.60;;;11.13;;
37097;SDS011;63608;49.572;12.348;2022-12-11T02:35:17;15.67;;;11.30;;
37097;SDS011;63608;49.572;12.348;2022-12-11T02:37:22;13.63;;;10.40;;
37097;SDS011;63608;49.572;12.348;2022-12-11T02:39:27;13.47;;;10.23;;
37097;SDS011;63608;49.572;12.348;2022-12-11T02:41:30;15.30;;;11.13;;
37097;SDS011;63608;49.572;12.348;2022-12-11T02:43:35;14.93;;;10.37;;
37097;SDS011;63608;49.572;12.348;2022-12-11T02:45:42;13.53;;;10.47;;
37097;SDS011;63608;49.572;12.348;2022-12-11T02:47:45;15.90;;;10.97;;
37097;SDS011;63608;49.572;12.348;2022-12-11T02:49:48;16.07;;;11.33;;
37097;SDS011;63608;49.572;12.348;2022-12-11T02:51:51;15.93;;;11.50;;
37097;SDS011;63608;49.572;12.348;2022-12-11T02:53:55;15.57;;;10.80;;
37097;SDS011;63608;49.572;12.348;2022-12-11T02:56:00;16.90;;;12.10;;
37097;SDS011;63608;49.572;12.348;2022-12-11T02:58:06;15.77;;;12.10;;
37097;SDS011;63608;49.572;12.348;2022-12-11T03:00:13;19.27;;;12.47;;
37097;SDS011;63608;49.572;12.348;2022-12-11T03:02:19;15.87;;;11.87;;
37097;SDS011;63608;49.572;12.348;2022-12-11T03:04:24;19.20;;;13.20;;
37097;SDS011;63608;49.572;12.348;2022-12-11T03:06:28;16.87;;;11.80;;
37097;SDS011;63608;49.572;12.348;2022-12-11T03:08:34;16.70;;;12.10;;
37097;SDS011;63608;49.572;12.348;2022-12-11T03:10:37;16.03;;;11.47;;
37097;SDS011;63608;49.572;12.348;2022-12-11T03:12:41;15.60;;;11.93;;
37097;SDS011;63608;49.572;12.348;2022-12-11T03:14:51;16.83;;;11.97;;
37097;SDS011;63608;49.572;12.348;2022-12-11T03:16:55;16.43;;;12.13;;
37097;SDS011;63608;49.572;12.348;2022-12-11T03:19:09;16.87;;;12.27;;
37097;SDS011;63608;49.572;12.348;2022-12-11T03:21:13;16.93;;;12.03;;
37097;SDS011;63608;49.572;12.348;2022-12-11T03:23:24;16.83;;;12.40;;
37097;SDS011;63608;49.572;12.348;2022-12-11T03:25:30;17.10;;;12.53;;
37097;SDS011;63608;49.572;12.348;2022-12-11T03:27:40;17.77;;;12.60;;
37097;SDS011;63608;49.572;12.348;2022-12-11T03:29:46;18.00;;;12.80;;
37097;SDS011;63608;49.572;12.348;2022-12-11T03:31:55;16.50;;;12.53;;
37097;SDS011;63608;49.572;12.348;2022-12-11T03:34:00;17.47;;;12.67;;
37097;SDS011;63608;49.572;12.348;2022-12-11T03:36:10;18.87;;;13.17;;
37097;SDS011;63608;49.572;12.348;2022-12-11T03:38:17;17.67;;;12.50;;
37097;SDS011;63608;49.572;12.348;2022-12-11T03:40:21;21.27;;;14.23;;
37097;SDS011;63608;49.572;12.348;2022-12-11T03:42:25;18.37;;;12.93;;
37097;SDS011;63608;49.572;12.348;2022-12-11T03:44:28;21.93;;;13.57;;
37097;SDS011;63608;49.572;12.348;2022-12-11T03:46:32;20.03;;;13.70;;
37097;SDS011;63608;49.572;12.348;2022-12-11T03:48:40;19.93;;;13.83;;
37097;SDS011;63608;49.572;12.348;2022-12-11T03:50:44;22.33;;;14.70;;
37097;SDS011;63608;49.572;12.348;2022-12-11T03:52:48;18.83;;;14.10;;
37097;SDS011;63608;49.572;12.348;2022-12-11T03:54:52;19.10;;;13.83;;
37097;SDS011;63608;49.572;12.348;2022-12-11T03:56:57;19.03;;;13.13;;
37097;SDS011;63608;49.572;12.348;2022-12-11T03:59:03;20.53;;;14.40;;
37097;SDS011;63608;49.572;12.348;2022-12-11T04:01:08;20.87;;;13.80;;
37097;SDS011;63608;49.572;12.348;2022-12-11T04:03:11;19.87;;;14.30;;
37097;SDS011;63608;49.572;12.348;2022-12-11T04:05:13;21.17;;;14.00;;
37097;SDS011;63608;49.572;12.348;2022-12-11T04:07:15;20.07;;;13.87;;
37097;SDS011;63608;49.572;12.348;2022-12-11T04:09:28;22.83;;;14.73;;
37097;SDS011;63608;49.572;12.348;2022-12-11T04:11:37;20.10;;;14.03;;
37097;SDS011;63608;49.572;12.348;2022-12-11T04:13:42;22.43;;;14.30;;
37097;SDS011;63608;49.572;12.348;2022-12-11T04:15:44;22.87;;;14.93;;
37097;SDS011;63608;49.572;12.348;2022-12-11T04:17:46;22.47;;;14.27;;
37097;SDS011;63608;49.572;12.348;2022-12-11T04:20:06;23.00;;;14.97;;
37097;SDS011;63608;49.572;12.348;2022-12-11T04:22:26;22.23;;;15.00;;
37097;SDS011;63608;49.572;12.348;2022-12-11T04:24:47;22.07;;;14.67;;
37097;SDS011;63608;49.572;12.348;2022-12-11T04:26:52;19.83;;;13.73;;
37097;SDS011;63608;49.572;12.348;2022-12-11T04:28:58;22.67;;;14.93;;
37097;SDS011;63608;49.572;12.348;2022-12-11T04:31:01;21.50;;;13.77;;
37097;SDS011;63608;49.572;12.348;2022-12-11T04:33:04;22.17;;;14.50;;
37097;SDS011;63608;49.572;12.348;2022-12-11T04:35:07;19.77;;;13.83;;
37097;SDS011;63608;49.572;12.348;2022-12-11T04:37:10;19.43;;;13.53;;
37097;SDS011;63608;49.572;12.348;2022-12-11T04:39:13;21.17;;;14.70;;
37097;SDS011;63608;49.572;12.348;2022-12-11T04:41:18;19.77;;;13.77;;
37097;SDS011;63608;49.572;12.348;2022-12-11T04:43:20;20.00;;;14.13;;
37097;SDS011;63608;49.572;12.348;2022-12-11T04:45:23;21.87;;;14.73;;
37097;SDS011;63608;49.572;12.348;2022-12-11T04:47:25;19.93;;;14.10;;
37097;SDS011;63608;49.572;12.348;2022-12-11T04:49:29;21.20;;;14.57;;
37097;SDS011;63608;49.572;12.348;2022-12-11T04:51:33;21.30;;;14.50;;
37097;SDS011;63608;49.572;12.348;2022-12-11T04:53:36;21.37;;;14.87;;
37097;SDS011;63608;49.572;12.348;2022-12-11T04:55:38;20.83;;;13.37;;
37097;SDS011;63608;49.572;12.348;2022-12-11T04:57:43;19.23;;;13.50;;
37097;SDS011;63608;49.572;12.348;2022-12-11T04:59:45;20.77;;;14.60;;
37097;SDS011;63608;49.572;12.348;2022-12-11T05:01:47;21.63;;;14.70;;
37097;SDS011;63608;49.572;12.348;2022-12-11T05:03:54;21.87;;;14.23;;
37097;SDS011;63608;49.572;12.348;2022-12-11T05:05:59;18.50;;;13.13;;
37097;SDS011;63608;49.572;12.348;2022-12-11T05:08:01;20.70;;;14.10;;
37097;SDS011;63608;49.572;12.348;2022-12-11T05:10:04;21.17;;;14.27;;
37097;SDS011;63608;49.572;12.348;2022-12-11T05:12:09;21.60;;;14.33;;
37097;SDS011;63608;49.572;12.348;2022-12-11T05:14:16;19.63;;;13.50;;
37097;SDS011;63608;49.572;12.348;2022-12-11T05:16:18;19.70;;;13.73;;
37097;SDS011;63608;49.572;12.348;2022-12-11T05:18:21;23.90;;;14.70;;
37097;SDS011;63608;49.572;12.348;2022-12-11T05:20:28;18.53;;;13.40;;
37097;SDS011;63608;49.572;12.348;2022-12-11T05:22:31;21.07;;;13.97;;
37097;SDS011;63608;49.572;12.348;2022-12-11T05:24:33;18.70;;;12.60;;
37097;SDS011;63608;49.572;12.348;2022-12-11T05:26:36;19.73;;;12.90;;
37097;SDS011;63608;49.572;12.348;2022-12-11T05:28:38;22.33;;;14.47;;
37097;SDS011;63608;49.572;12.348;2022-12-11T05:30:44;20.80;;;14.40;;
37097;SDS011;63608;49.572;12.348;2022-12-11T05:32:51;17.43;;;12.30;;
37097;SDS011;63608;49.572;12.348;2022-12-11T05:34:55;18.80;;;12.70;;
37097;SDS011;63608;49.572;12.348;2022-12-11T05:36:57;18.60;;;12.87;;
37097;SDS011;63608;49.572;12.348;2022-12-11T05:39:00;19.63;;;13.50;;
37097;SDS011;63608;49.572;12.348;2022-12-11T05:41:04;21.03;;;13.43;;
37097;SDS011;63608;49.572;12.348;2022-12-11T05:43:08;20.43;;;13.80;;
37097;SDS011;63608;49.572;12.348;2022-12-11T05:45:11;17.50;;;12.60;;
37097;SDS011;63608;49.572;12.348;2022-12-11T05:47:15;19.97;;;13.40;;
37097;SDS011;63608;49.572;12.348;2022-12-11T05:49:23;18.10;;;13.03;;
37097;SDS011;63608;49.572;12.348;2022-12-11T05:51:28;17.07;;;12.00;;
37097;SDS011;63608;49.572;12.348;2022-12-11T05:53:33;18.50;;;12.13;;
37097;SDS011;63608;49.572;12.348;2022-12-11T05:55:37;18.47;;;12.33;;
37097;SDS011;63608;49.572;12.348;2022-12-11T05:57:40;17.47;;;12.43;;
37097;SDS011;63608;49.572;12.348;2022-12-11T05:59:43;17.90;;;12.97;;
37097;SDS011;63608;49.572;12.348;2022-12-11T06:01:46;18.87;;;12.23;;
37097;SDS011;63608;49.572;12.348;2022-12-11T06:03:54;17.70;;;12.53;;
37097;SDS011;63608;49.572;12.348;2022-12-11T06:05:59;21.70;;;14.17;;
37097;SDS011;63608;49.572;12.348;2022-12-11T06:08:02;19.07;;;12.50;;
37097;SDS011;63608;49.572;12.348;2022-12-11T06:10:05;21.30;;;13.50;;
37097;SDS011;63608;49.572;12.348;2022-12-11T06:12:08;21.03;;;14.30;;
37097;SDS011;63608;49.572;12.348;2022-12-11T06:14:11;18.87;;;13.07;;
37097;SDS011;63608;49.572;12.348;2022-12-11T06:16:13;18.33;;;12.80;;
37097;SDS011;63608;49.572;12.348;2022-12-11T06:18:16;20.17;;;12.90;;
37097;SDS011;63608;49.572;12.348;2022-12-11T06:20:22;18.63;;;12.73;;
37097;SDS011;63608;49.572;12.348;2022-12-11T06:22:24;19.57;;;13.07;;
37097;SDS011;63608;49.572;12.348;2022-12-11T06:24:27;19.53;;;13.20;;
37097;SDS011;63608;49.572;12.348;2022-12-11T06:26:30;19.80;;;13.20;;
37097;SDS011;63608;49.572;12.348;2022-12-11T06:28:33;20.33;;;13.40;;
37097;SDS011;63608;49.572;12.348;2022-12-11T06:30:42;18.17;;;12.20;;
37097;SDS011;63608;49.572;12.348;2022-12-11T06:32:45;18.10;;;11.93;;
37097;SDS011;63608;49.572;12.348;2022-12-11T06:34:47;17.87;;;12.03;;
37097;SDS011;63608;49.572;12.348;2022-12-11T06:36:52;18.00;;;12.10;;
37097;SDS011;63608;49.572;12.348;2022-12-11T06:38:56;18.47;;;11.87;;
37097;SDS011;63608;49.572;12.348;2022-12-11T06:41:00;18.67;;;12.70;;
37097;SDS011;63608;49.572;12.348;2022-12-11T06:43:03;16.70;;;11.87;;
37097;SDS011;63608;49.572;12.348;2022-12-11T06:45:09;18.50;;;12.30;;
37097;SDS011;63608;49.572;12.348;2022-12-11T06:47:12;19.20;;;12.50;;
37097;SDS011;63608;49.572;12.348;2022-12-11T06:49:14;17.77;;;11.90;;
37097;SDS011;63608;49.572;12.348;2022-12-11T06:51:20;16.60;;;11.60;;
37097;SDS011;63608;49.572;12.348;2022-12-11T06:53:25;16.90;;;11.60;;
37097;SDS011;63608;49.572;12.348;2022-12-11T06:55:27;17.20;;;11.03;;
37097;SDS011;63608;49.572;12.348;2022-12-11T06:57:30;14.23;;;10.57;;
37097;SDS011;63608;49.572;12.348;2022-12-11T06:59:32;18.57;;;12.50;;
37097;SDS011;63608;49.572;12.348;2022-12-11T07:01:35;16.27;;;11.27;;
37097;SDS011;63608;49.572;12.348;2022-12-11T07:03:37;15.60;;;10.60;;
37097;SDS011;63608;49.572;12.348;2022-12-11T07:05:40;19.73;;;13.00;;
37097;SDS011;63608;49.572;12.348;2022-12-11T07:07:42;15.97;;;11.27;;
37097;SDS011;63608;49.572;12.348;2022-12-11T07:09:50;31.00;;;17.60;;
37097;SDS011;63608;49.572;12.348;2022-12-11T07:11:53;25.90;;;16.90;;
37097;SDS011;63608;49.572;12.348;2022-12-11T07:13:57;16.50;;;12.03;;
37097;SDS011;63608;49.572;12.348;2022-12-11T07:16:00;22.80;;;15.23;;
37097;SDS011;63608;49.572;12.348;2022-12-11T07:18:09;15.83;;;11.67;;
37097;SDS011;63608;49.572;12.348;2022-12-11T07:20:12;16.80;;;11.87;;
37097;SDS011;63608;49.572;12.348;2022-12-11T07:22:15;20.70;;;15.50;;
37097;SDS011;63608;49.572;12.348;2022-12-11T07:24:18;22.43;;;16.10;;
37097;SDS011;63608;49.572;12.348;2022-12-11T07:26:22;16.00;;;11.53;;
37097;SDS011;63608;49.572;12.348;2022-12-11T07:28:25;24.27;;;17.23;;
37097;SDS011;63608;49.572;12.348;2022-12-11T07:30:27;17.50;;;13.43;;
37097;SDS011;63608;49.572;12.348;2022-12-11T07:32:30;19.70;;;12.83;;
37097;SDS011;63608;49.572;12.348;2022-12-11T07:34:32;17.17;;;12.40;;
37097;SDS011;63608;49.572;12.348;2022-12-11T07:36:36;19.13;;;12.20;;
37097;SDS011;63608;49.572;12.348;2022-12-11T07:38:39;17.80;;;11.77;;
37097;SDS011;63608;49.572;12.348;2022-12-11T07:40:42;15.97;;;11.10;;
37097;SDS011;63608;49.572;12.348;2022-12-11T07:42:47;16.20;;;11.17;;
37097;SDS011;63608;49.572;12.348;2022-12-11T07:44:49;21.27;;;14.27;;
37097;SDS011;63608;49.572;12.348;2022-12-11T07:46:51;15.97;;;10.90;;
37097;SDS011;63608;49.572;12.348;2022-12-11T07:48:54;14.30;;;10.47;;
37097;SDS011;63608;49.572;12.348;2022-12-11T07:51:06;14.70;;;10.53;;
37097;SDS011;63608;49.572;12.348;2022-12-11T07:53:09;17.00;;;9.50;;
37097;SDS011;63608;49.572;12.348;2022-12-11T07:55:14;11.80;;;9.10;;
37097;SDS011;63608;49.572;12.348;2022-12-11T07:57:16;11.73;;;9.20;;
37097;SDS011;63608;49.572;12.348;2022-12-11T07:59:24;13.50;;;9.77;;
37097;SDS011;63608;49.572;12.348;2022-12-11T08:01:29;13.90;;;10.13;;
37097;SDS011;63608;49.572;12.348;2022-12-11T08:03:36;14.07;;;10.43;;
37097;SDS011;63608;49.572;12.348;2022-12-11T08:05:45;13.30;;;9.77;;
37097;SDS011;63608;49.572;12.348;2022-12-11T08:07:52;13.47;;;10.03;;
37097;SDS011;63608;49.572;12.348;2022-12-11T08:09:56;13.20;;;10.30;;
37097;SDS011;63608;49.572;12.348;2022-12-11T08:11:59;15.93;;;11.03;;
37097;SDS011;63608;49.572;12.348;2022-12-11T08:14:01;15.17;;;11.10;;
37097;SDS011;63608;49.572;12.348;2022-12-11T08:16:08;15.60;;;11.00;;
37097;SDS011;63608;49.572;12.348;2022-12-11T08:18:12;14.20;;;11.10;;
37097;SDS011;63608;49.572;12.348;2022-12-11T08:20:15;17.20;;;12.00;;
37097;SDS011;63608;49.572;12.348;2022-12-11T08:22:18;14.83;;;11.10;;
37097;SDS011;63608;49.572;12.348;2022-12-11T08:24:21;17.40;;;12.00;;
37097;SDS011;63608;49.572;12.348;2022-12-11T08:26:28;15.70;;;11.13;;
37097;SDS011;63608;49.572;12.348;2022-12-11T08:28:32;14.33;;;10.50;;
37097;SDS011;63608;49.572;12.348;2022-12-11T08:30:34;16.87;;;11.23;;
37097;SDS011;63608;49.572;12.348;2022-12-11T08:32:41;12.93;;;9.93;;
37097;SDS011;63608;49.572;12.348;2022-12-11T08:34:47;15.70;;;11.67;;
37097;SDS011;63608;49.572;12.348;2022-12-11T08:36:52;15.20;;;10.93;;
37097;SDS011;63608;49.572;12.348;2022-12-11T08:38:54;15.00;;;10.60;;
37097;SDS011;63608;49.572;12.348;2022-12-11T08:40:57;18.43;;;11.20;;
37097;SDS011;63608;49.572;12.348;2022-12-11T08:43:00;17.53;;;11.60;;
37097;SDS011;63608;49.572;12.348;2022-12-11T08:45:06;16.50;;;11.63;;
37097;SDS011;63608;49.572;12.348;2022-12-11T08:47:09;20.03;;;14.40;;
37097;SDS011;63608;49.572;12.348;2022-12-11T08:49:13;18.00;;;11.83;;
37097;SDS011;63608;49.572;12.348;2022-12-11T08:51:17;17.67;;;11.97;;
37097;SDS011;63608;49.572;12.348;2022-12-11T08:53:23;17.93;;;11.90;;
37097;SDS011;63608;49.572;12.348;2022-12-11T08:55:27;16.53;;;11.37;;
37097;SDS011;63608;49.572;12.348;2022-12-11T08:57:29;16.57;;;11.90;;
37097;SDS011;63608;49.572;12.348;2022-12-11T08:59:32;18.00;;;12.77;;
37097;SDS011;63608;49.572;12.348;2022-12-11T09:01:38;14.77;;;11.60;;
37097;SDS011;63608;49.572;12.348;2022-12-11T09:03:41;17.57;;;12.20;;
37097;SDS011;63608;49.572;12.348;2022-12-11T09:05:45;16.23;;;11.53;;
37097;SDS011;63608;49.572;12.348;2022-12-11T09:07:50;14.70;;;10.73;;
37097;SDS011;63608;49.572;12.348;2022-12-11T09:09:53;15.63;;;11.30;;
37097;SDS011;63608;49.572;12.348;2022-12-11T09:11:57;16.50;;;11.60;;
37097;SDS011;63608;49.572;12.348;2022-12-11T09:14:00;14.77;;;10.80;;
37097;SDS011;63608;49.572;12.348;2022-12-11T09:16:06;15.43;;;11.27;;
37097;SDS011;63608;49.572;12.348;2022-12-11T09:18:10;13.43;;;10.70;;
37097;SDS011;63608;49.572;12.348;2022-12-11T09:20:13;12.37;;;9.17;;
37097;SDS011;63608;49.572;12.348;2022-12-11T09:22:19;12.43;;;9.80;;
37097;SDS011;63608;49.572;12.348;2022-12-11T09:24:22;14.73;;;10.57;;
37097;SDS011;63608;49.572;12.348;2022-12-11T09:26:25;15.27;;;11.20;;
37097;SDS011;63608;49.572;12.348;2022-12-11T09:28:30;15.00;;;10.30;;
37097;SDS011;63608;49.572;12.348;2022-12-11T09:30:33;13.20;;;10.50;;
37097;SDS011;63608;49.572;12.348;2022-12-11T09:32:38;15.40;;;11.30;;
37097;SDS011;63608;49.572;12.348;2022-12-11T09:34:41;29.30;;;18.07;;
37097;SDS011;63608;49.572;12.348;2022-12-11T09:36:43;17.90;;;11.60;;
37097;SDS011;63608;49.572;12.348;2022-12-11T09:38:48;26.53;;;15.57;;
37097;SDS011;63608;49.572;12.348;2022-12-11T09:40:51;24.87;;;13.90;;
37097;SDS011;63608;49.572;12.348;2022-12-11T09:42:56;15.80;;;11.53;;
37097;SDS011;63608;49.572;12.348;2022-12-11T09:45:02;15.47;;;11.00;;
37097;SDS011;63608;49.572;12.348;2022-12-11T09:47:16;14.20;;;10.80;;
37097;SDS011;63608;49.572;12.348;2022-12-11T09:49:31;18.37;;;11.90;;
37097;SDS011;63608;49.572;12.348;2022-12-11T09:51:38;14.83;;;11.13;;
37097;SDS011;63608;49.572;12.348;2022-12-11T09:53:42;63.00;;;23.13;;
37097;SDS011;63608;49.572;12.348;2022-12-11T09:55:48;14.33;;;10.20;;
37097;SDS011;63608;49.572;12.348;2022-12-11T09:57:56;29.00;;;20.50;;
37097;SDS011;63608;49.572;12.348;2022-12-11T10:00:04;11.00;;;9.13;;
37097;SDS011;63608;49.572;12.348;2022-12-11T10:02:18;10.60;;;8.77;;
37097;SDS011;63608;49.572;12.348;2022-12-11T10:04:33;14.63;;;11.37;;
37097;SDS011;63608;49.572;12.348;2022-12-11T10:06:40;14.57;;;10.83;;
37097;SDS011;63608;49.572;12.348;2022-12-11T10:08:49;8.80;;;7.37;;
37097;SDS011;63608;49.572;12.348;2022-12-11T10:11:03;10.03;;;8.00;;
37097;SDS011;63608;49.572;12.348;2022-12-11T10:13:15;9.30;;;8.30;;
37097;SDS011;63608;49.572;12.348;2022-12-11T10:15:30;19.00;;;13.23;;
37097;SDS011;63608;49.572;12.348;2022-12-11T10:17:38;16.97;;;13.17;;
37097;SDS011;63608;49.572;12.348;2022-12-11T10:19:43;10.50;;;7.80;;
37097;SDS011;63608;49.572;12.348;2022-12-11T10:21:46;13.93;;;9.20;;
37097;SDS011;63608;49.572;12.348;2022-12-11T10:23:52;13.47;;;10.30;;
37097;SDS011;63608;49.572;12.348;2022-12-11T10:25:57;16.93;;;12.27;;
37097;SDS011;63608;49.572;12.348;2022-12-11T10:28:12;18.43;;;11.83;;
37097;SDS011;63608;49.572;12.348;2022-12-11T10:30:16;8.97;;;7.20;;
37097;SDS011;63608;49.572;12.348;2022-12-11T10:32:21;19.10;;;12.87;;
37097;SDS011;63608;49.572;12.348;2022-12-11T10:34:27;8.53;;;7.60;;
37097;SDS011;63608;49.572;12.348;2022-12-11T10:36:37;9.27;;;7.67;;
37097;SDS011;63608;49.572;12.348;2022-12-11T10:38:41;8.20;;;7.10;;
37097;SDS011;63608;49.572;12.348;2022-12-11T10:40:48;8.50;;;7.40;;
37097;SDS011;63608;49.572;12.348;2022-12-11T10:42:55;6.70;;;5.97;;
37097;SDS011;63608;49.572;12.348;2022-12-11T10:44:59;7.00;;;6.27;;
37097;SDS011;63608;49.572;12.348;2022-12-11T10:47:04;7.47;;;6.40;;
37097;SDS011;63608;49.572;12.348;2022-12-11T10:49:19;6.60;;;6.00;;
37097;SDS011;63608;49.572;12.348;2022-12-11T10:51:24;7.50;;;6.20;;
37097;SDS011;63608;49.572;12.348;2022-12-11T10:53:36;7.30;;;6.40;;
37097;SDS011;63608;49.572;12.348;2022-12-11T10:55:43;7.37;;;6.67;;
37097;SDS011;63608;49.572;12.348;2022-12-11T10:57:53;7.03;;;6.33;;
37097;SDS011;63608;49.572;12.348;2022-12-11T10:59:59;7.30;;;6.50;;
37097;SDS011;63608;49.572;12.348;2022-12-11T11:04:15;7.43;;;6.63;;
37097;SDS011;63608;49.572;12.348;2022-12-11T11:06:26;7.63;;;6.83;;
37097;SDS011;63608;49.572;12.348;2022-12-11T11:08:37;22.70;;;11.07;;
37097;SDS011;63608;49.572;12.348;2022-12-11T11:10:51;7.70;;;6.70;;
37097;SDS011;63608;49.572;12.348;2022-12-11T11:13:00;6.70;;;6.00;;
37097;SDS011;63608;49.572;12.348;2022-12-11T11:15:05;11.83;;;9.07;;
37097;SDS011;63608;49.572;12.348;2022-12-11T11:17:13;11.13;;;9.00;;
37097;SDS011;63608;49.572;12.348;2022-12-11T11:19:18;6.47;;;5.77;;
37097;SDS011;63608;49.572;12.348;2022-12-11T11:21:24;21.17;;;16.03;;
37097;SDS011;63608;49.572;12.348;2022-12-11T11:23:29;10.17;;;8.57;;
37097;SDS011;63608;49.572;12.348;2022-12-11T11:25:32;8.53;;;6.57;;
37097;SDS011;63608;49.572;12.348;2022-12-11T11:27:38;12.80;;;9.60;;
37097;SDS011;63608;49.572;12.348;2022-12-11T11:29:45;7.20;;;6.50;;
37097;SDS011;63608;49.572;12.348;2022-12-11T11:31:48;8.63;;;7.23;;
37097;SDS011;63608;49.572;12.348;2022-12-11T11:33:53;7.17;;;6.47;;
37097;SDS011;63608;49.572;12.348;2022-12-11T11:35:57;7.37;;;6.67;;
37097;SDS011;63608;49.572;12.348;2022-12-11T11:38:03;11.30;;;8.90;;
37097;SDS011;63608;49.572;12.348;2022-12-11T11:40:09;6.30;;;5.70;;
37097;SDS011;63608;49.572;12.348;2022-12-11T11:42:15;6.40;;;5.80;;
37097;SDS011;63608;49.572;12.348;2022-12-11T11:44:22;6.40;;;5.80;;
37097;SDS011;63608;49.572;12.348;2022-12-11T11:46:32;6.40;;;5.80;;
37097;SDS011;63608;49.572;12.348;2022-12-11T11:48:37;7.33;;;6.63;;
37097;SDS011;63608;49.572;12.348;2022-12-11T11:50:47;7.47;;;6.60;;
37097;SDS011;63608;49.572;12.348;2022-12-11T11:52:54;7.40;;;6.70;;
37097;SDS011;63608;49.572;12.348;2022-12-11T11:55:05;6.83;;;6.17;;
37097;SDS011;63608;49.572;12.348;2022-12-11T11:57:11;6.57;;;5.90;;
37097;SDS011;63608;49.572;12.348;2022-12-11T11:59:18;6.80;;;6.07;;
37097;SDS011;63608;49.572;12.348;2022-12-11T12:01:24;7.20;;;6.50;;
37097;SDS011;63608;49.572;12.348;2022-12-11T12:03:29;6.73;;;6.00;;
37097;SDS011;63608;49.572;12.348;2022-12-11T12:05:34;6.47;;;5.87;;
37097;SDS011;63608;49.572;12.348;2022-12-11T12:07:41;6.80;;;6.20;;
37097;SDS011;63608;49.572;12.348;2022-12-11T12:09:50;6.40;;;5.80;;
37097;SDS011;63608;49.572;12.348;2022-12-11T12:11:59;6.70;;;6.10;;
37097;SDS011;63608;49.572;12.348;2022-12-11T12:14:10;8.70;;;6.40;;